createdAt,value
2017-12-25T00:00:00.469Z,0.00
2017-12-25T00:01:00.542Z,0.00
2017-12-25T00:02:00.495Z,0.00
2017-12-25T00:03:00.468Z,0.00
2017-12-25T00:04:00.544Z,0.00
2017-12-25T00:05:00.468Z,0.00
2017-12-25T00:06:00.542Z,0.00
2017-12-25T00:07:00.454Z,0.00
2017-12-25T00:08:00.475Z,0.00
2017-12-25T00:09:00.549Z,0.00
2017-12-25T00:10:00.474Z,0.00
2017-12-25T00:11:00.547Z,0.00
2017-12-25T00:12:00.473Z,0.00
2017-12-25T00:13:00.473Z,0.00
2017-12-25T00:14:00.551Z,0.00
2017-12-25T00:15:00.479Z,0.00
2017-12-25T00:16:00.436Z,0.00
2017-12-25T00:17:00.478Z,0.00
2017-12-25T00:18:00.549Z,0.00
2017-12-25T00:19:00.519Z,0.00
2017-12-25T00:20:00.551Z,0.00
2017-12-25T00:21:00.479Z,0.00
2017-12-25T00:22:00.561Z,0.00
2017-12-25T00:23:00.483Z,0.00
2017-12-25T00:24:00.553Z,0.00
2017-12-25T00:25:00.431Z,0.00
2017-12-25T00:26:00.371Z,0.00
2017-12-25T00:27:00.431Z,0.00
2017-12-25T00:28:00.374Z,0.00
2017-12-25T00:29:00.461Z,0.00
2017-12-25T00:30:00.461Z,0.00
2017-12-25T00:31:00.381Z,0.00
2017-12-25T00:32:00.431Z,0.00
2017-12-25T00:33:00.374Z,0.00
2017-12-25T00:34:00.466Z,0.00
2017-12-25T00:35:00.437Z,0.00
2017-12-25T00:36:00.547Z,0.00
2017-12-25T00:37:00.473Z,0.00
2017-12-25T00:38:00.552Z,0.00
2017-12-25T00:39:00.459Z,0.00
2017-12-25T00:40:00.472Z,0.00
2017-12-25T00:41:00.437Z,0.00
2017-12-25T00:42:00.505Z,0.00
2017-12-25T00:43:00.465Z,0.00
2017-12-25T00:44:00.515Z,0.00
2017-12-25T00:45:00.399Z,0.00
2017-12-25T00:46:00.450Z,0.00
2017-12-25T00:47:00.433Z,0.00
2017-12-25T00:48:00.437Z,0.00
2017-12-25T00:49:00.507Z,0.00
2017-12-25T00:50:00.495Z,0.00
2017-12-25T00:51:00.494Z,0.00
2017-12-25T00:52:00.525Z,0.00
2017-12-25T00:53:00.528Z,0.00
2017-12-25T00:54:00.494Z,0.00
2017-12-25T00:55:00.574Z,0.00
2017-12-25T00:56:00.499Z,0.00
2017-12-25T00:57:00.502Z,0.00
2017-12-25T00:58:00.575Z,0.00
2017-12-25T00:59:00.502Z,0.00
2017-12-25T01:00:00.575Z,0.00
2017-12-25T01:01:00.503Z,0.00
2017-12-25T01:02:00.514Z,0.00
2017-12-25T01:03:00.579Z,0.00
2017-12-25T01:04:00.506Z,0.00
2017-12-25T01:05:00.578Z,0.00
2017-12-25T01:06:00.506Z,0.00
2017-12-25T01:07:00.583Z,0.00
2017-12-25T01:08:00.506Z,0.00
2017-12-25T01:09:00.581Z,0.00
2017-12-25T01:10:00.509Z,0.00
2017-12-25T01:11:00.584Z,0.00
2017-12-25T01:12:00.511Z,0.00
2017-12-25T01:13:00.584Z,0.00
2017-12-25T01:14:00.516Z,0.00
2017-12-25T01:15:00.586Z,0.00
2017-12-25T01:16:00.514Z,0.00
2017-12-25T01:17:00.586Z,0.00
2017-12-25T01:18:00.517Z,0.00
2017-12-25T01:19:00.586Z,0.00
2017-12-25T01:20:00.512Z,0.00
2017-12-25T01:21:00.518Z,0.00
2017-12-25T01:22:00.589Z,0.00
2017-12-25T01:23:00.524Z,0.00
2017-12-25T01:24:00.590Z,0.00
2017-12-25T01:25:00.522Z,0.00
2017-12-25T01:26:00.595Z,0.00
2017-12-25T01:27:00.517Z,0.00
2017-12-25T01:28:00.592Z,0.00
2017-12-25T01:29:00.518Z,0.00
2017-12-25T01:30:00.595Z,0.00
2017-12-25T01:31:00.522Z,0.00
2017-12-25T01:32:00.596Z,0.00
2017-12-25T01:33:00.518Z,0.00
2017-12-25T01:34:00.599Z,0.00
2017-12-25T01:35:00.499Z,0.00
2017-12-25T01:36:00.500Z,0.00
2017-12-25T01:37:00.431Z,0.00
2017-12-25T01:38:00.418Z,0.00
2017-12-25T01:39:00.509Z,0.00
2017-12-25T01:40:00.467Z,0.00
2017-12-25T01:41:00.406Z,0.00
2017-12-25T01:42:00.410Z,0.00
2017-12-25T01:43:00.509Z,0.00
2017-12-25T01:44:00.477Z,0.00
2017-12-25T01:45:00.533Z,0.00
2017-12-25T01:46:00.534Z,0.00
2017-12-25T01:47:00.603Z,0.00
2017-12-25T01:48:00.541Z,0.00
2017-12-25T01:49:00.604Z,0.00
2017-12-25T01:50:00.531Z,0.00
2017-12-25T01:51:00.603Z,0.00
2017-12-25T01:52:00.532Z,0.00
2017-12-25T01:53:00.609Z,0.00
2017-12-25T01:54:00.533Z,0.00
2017-12-25T01:55:00.609Z,0.00
2017-12-25T01:56:00.531Z,0.00
2017-12-25T01:57:00.531Z,0.00
2017-12-25T01:58:00.532Z,0.00
2017-12-25T01:59:00.537Z,0.00
2017-12-25T02:00:00.612Z,0.00
2017-12-25T02:01:00.541Z,0.00
2017-12-25T02:02:00.614Z,0.00
2017-12-25T02:03:00.541Z,0.00
2017-12-25T02:04:00.615Z,0.00
2017-12-25T02:05:00.574Z,0.00
2017-12-25T02:06:00.617Z,0.00
2017-12-25T02:07:00.573Z,0.00
2017-12-25T02:08:00.545Z,0.00
2017-12-25T02:09:00.618Z,0.00
2017-12-25T02:10:00.546Z,0.00
2017-12-25T02:11:00.618Z,0.00
2017-12-25T02:12:00.544Z,0.00
2017-12-25T02:13:00.619Z,0.00
2017-12-25T02:14:00.548Z,0.00
2017-12-25T02:15:00.611Z,0.00
2017-12-25T02:16:00.570Z,0.00
2017-12-25T02:17:00.519Z,0.00
2017-12-25T02:18:00.526Z,0.00
2017-12-25T02:19:00.519Z,0.00
2017-12-25T02:20:00.593Z,0.00
2017-12-25T02:21:00.588Z,0.00
2017-12-25T02:22:00.619Z,0.00
2017-12-25T02:23:00.562Z,0.00
2017-12-25T02:24:00.530Z,0.00
2017-12-25T02:25:00.553Z,0.00
2017-12-25T02:26:00.627Z,0.00
2017-12-25T02:27:00.557Z,0.00
2017-12-25T02:28:00.632Z,0.00
2017-12-25T02:29:00.555Z,0.00
2017-12-25T02:30:00.631Z,0.00
2017-12-25T02:31:00.555Z,0.00
2017-12-25T02:32:00.566Z,0.00
2017-12-25T02:33:00.638Z,0.00
2017-12-25T02:34:00.570Z,0.00
2017-12-25T02:35:00.634Z,0.00
2017-12-25T02:36:00.560Z,0.00
2017-12-25T02:37:00.566Z,0.00
2017-12-25T02:38:00.688Z,0.00
2017-12-25T02:39:00.635Z,0.00
2017-12-25T02:40:00.570Z,0.00
2017-12-25T02:41:00.639Z,0.00
2017-12-25T02:42:00.571Z,0.00
2017-12-25T02:43:00.639Z,0.00
2017-12-25T02:44:00.648Z,0.00
2017-12-25T02:45:00.563Z,0.00
2017-12-25T02:46:00.639Z,0.00
2017-12-25T02:47:00.572Z,0.00
2017-12-25T02:48:00.641Z,0.00
2017-12-25T02:49:00.572Z,0.00
2017-12-25T02:50:00.641Z,0.00
2017-12-25T02:51:00.572Z,0.00
2017-12-25T02:52:00.645Z,0.00
2017-12-25T02:53:00.600Z,0.00
2017-12-25T02:54:00.645Z,0.00
2017-12-25T02:55:00.571Z,0.00
2017-12-25T02:56:00.646Z,0.00
2017-12-25T02:57:00.574Z,0.00
2017-12-25T02:58:00.646Z,0.00
2017-12-25T02:59:00.570Z,0.00
2017-12-25T03:00:00.596Z,0.00
2017-12-25T03:01:00.648Z,0.00
2017-12-25T03:02:00.575Z,0.00
2017-12-25T03:03:00.578Z,0.00
2017-12-25T03:04:00.649Z,0.00
2017-12-25T03:05:00.580Z,0.00
2017-12-25T03:06:00.584Z,0.00
2017-12-25T03:07:00.653Z,0.00
2017-12-25T03:08:00.585Z,0.00
2017-12-25T03:09:00.656Z,0.00
2017-12-25T03:10:00.578Z,0.00
2017-12-25T03:11:00.659Z,0.00
2017-12-25T03:12:00.583Z,0.00
2017-12-25T03:13:00.656Z,0.00
2017-12-25T03:14:00.588Z,0.00
2017-12-25T03:15:00.659Z,0.00
2017-12-25T03:16:00.585Z,0.00
2017-12-25T03:17:00.659Z,0.00
2017-12-25T03:18:00.622Z,0.00
2017-12-25T03:19:00.660Z,0.00
2017-12-25T03:20:00.658Z,0.00
2017-12-25T03:21:00.593Z,0.00
2017-12-25T03:22:00.660Z,0.00
2017-12-25T03:23:00.662Z,0.00
2017-12-25T03:24:00.591Z,0.00
2017-12-25T03:25:00.664Z,0.00
2017-12-25T03:26:00.593Z,0.00
2017-12-25T03:27:00.663Z,0.00
2017-12-25T03:28:00.592Z,0.00
2017-12-25T03:29:00.666Z,0.00
2017-12-25T03:30:00.592Z,0.00
2017-12-25T03:31:00.666Z,0.00
2017-12-25T03:32:00.636Z,0.00
2017-12-25T03:33:00.599Z,0.00
2017-12-25T03:34:00.603Z,0.00
2017-12-25T03:35:00.669Z,0.00
2017-12-25T03:36:00.598Z,0.00
2017-12-25T03:37:00.670Z,0.00
2017-12-25T03:38:00.596Z,0.00
2017-12-25T03:39:00.554Z,0.00
2017-12-25T03:40:00.599Z,0.00
2017-12-25T03:41:00.678Z,0.00
2017-12-25T03:42:00.604Z,0.00
2017-12-25T03:43:00.675Z,0.00
2017-12-25T03:44:00.606Z,0.00
2017-12-25T03:45:00.675Z,0.00
2017-12-25T03:46:00.610Z,0.00
2017-12-25T03:47:00.677Z,0.00
2017-12-25T03:48:00.608Z,0.00
2017-12-25T03:49:00.680Z,0.00
2017-12-25T03:50:00.606Z,0.00
2017-12-25T03:51:00.678Z,0.00
2017-12-25T03:52:00.605Z,0.00
2017-12-25T03:53:00.680Z,0.00
2017-12-25T03:54:00.612Z,0.00
2017-12-25T03:55:00.682Z,0.00
2017-12-25T03:56:00.604Z,0.00
2017-12-25T03:57:00.684Z,0.00
2017-12-25T03:58:00.606Z,0.00
2017-12-25T03:59:00.682Z,0.00
2017-12-25T04:00:00.607Z,0.00
2017-12-25T04:01:00.610Z,0.00
2017-12-25T04:02:00.616Z,0.00
2017-12-25T04:03:00.684Z,0.00
2017-12-25T04:04:00.687Z,0.00
2017-12-25T04:05:00.620Z,0.00
2017-12-25T04:06:00.689Z,0.00
2017-12-25T04:07:00.617Z,0.00
2017-12-25T04:08:00.690Z,0.00
2017-12-25T04:09:00.618Z,0.00
2017-12-25T04:10:00.691Z,0.00
2017-12-25T04:11:00.621Z,0.00
2017-12-25T04:12:00.690Z,0.00
2017-12-25T04:13:00.621Z,0.00
2017-12-25T04:14:00.693Z,0.00
2017-12-25T04:15:00.619Z,0.00
2017-12-25T04:16:00.694Z,0.00
2017-12-25T04:17:00.622Z,0.00
2017-12-25T04:18:00.694Z,0.00
2017-12-25T04:19:00.713Z,0.00
2017-12-25T04:20:00.618Z,0.00
2017-12-25T04:21:00.621Z,0.00
2017-12-25T04:22:00.696Z,0.00
2017-12-25T04:23:00.627Z,0.00
2017-12-25T04:24:00.700Z,0.00
2017-12-25T04:25:00.641Z,0.00
2017-12-25T04:26:00.645Z,0.00
2017-12-25T04:27:00.699Z,0.00
2017-12-25T04:28:00.601Z,0.00
2017-12-25T04:29:00.600Z,0.00
2017-12-25T04:30:00.662Z,0.00
2017-12-25T04:31:00.667Z,0.00
2017-12-25T04:32:00.575Z,0.00
2017-12-25T04:33:00.645Z,0.00
2017-12-25T04:34:00.670Z,0.00
2017-12-25T04:35:00.627Z,0.00
2017-12-25T04:36:00.633Z,0.00
2017-12-25T04:37:00.704Z,0.00
2017-12-25T04:38:00.630Z,0.00
2017-12-25T04:39:00.709Z,0.00
2017-12-25T04:40:00.634Z,0.00
2017-12-25T04:41:00.710Z,0.00
2017-12-25T04:42:00.644Z,0.00
2017-12-25T04:43:00.712Z,0.00
2017-12-25T04:44:00.636Z,0.00
2017-12-25T04:45:00.671Z,0.00
2017-12-25T04:46:00.659Z,0.00
2017-12-25T04:47:00.573Z,0.00
2017-12-25T04:48:00.592Z,0.00
2017-12-25T04:49:00.697Z,0.00
2017-12-25T04:50:00.678Z,0.00
2017-12-25T04:51:00.573Z,0.00
2017-12-25T04:52:00.625Z,0.00
2017-12-25T04:53:00.623Z,0.00
2017-12-25T04:54:00.653Z,0.00
2017-12-25T04:55:00.644Z,0.00
2017-12-25T04:56:00.716Z,0.00
2017-12-25T04:57:00.651Z,0.00
2017-12-25T04:58:00.720Z,0.00
2017-12-25T04:59:00.652Z,0.00
2017-12-25T05:00:00.718Z,0.00
2017-12-25T05:01:00.650Z,0.00
2017-12-25T05:02:00.723Z,0.00
2017-12-25T05:03:00.685Z,0.00
2017-12-25T05:04:00.745Z,0.00
2017-12-25T05:05:00.726Z,0.00
2017-12-25T05:06:00.725Z,0.00
2017-12-25T05:07:00.650Z,0.00
2017-12-25T05:08:00.725Z,0.00
2017-12-25T05:09:00.652Z,0.00
2017-12-25T05:10:00.726Z,0.00
2017-12-25T05:11:00.653Z,0.00
2017-12-25T05:12:00.722Z,0.00
2017-12-25T05:13:00.655Z,0.00
2017-12-25T05:14:00.733Z,0.00
2017-12-25T05:15:00.730Z,0.00
2017-12-25T05:16:00.660Z,0.00
2017-12-25T05:17:00.732Z,0.00
2017-12-25T05:18:00.652Z,0.00
2017-12-25T05:19:00.661Z,0.00
2017-12-25T05:20:00.732Z,0.00
2017-12-25T05:21:00.662Z,0.00
2017-12-25T05:22:00.733Z,0.00
2017-12-25T05:23:00.731Z,0.00
2017-12-25T05:24:00.657Z,0.00
2017-12-25T05:25:00.735Z,0.00
2017-12-25T05:26:00.673Z,0.00
2017-12-25T05:27:00.735Z,0.00
2017-12-25T05:28:00.662Z,0.00
2017-12-25T05:29:00.735Z,0.00
2017-12-25T05:30:00.660Z,0.00
2017-12-25T05:31:00.664Z,0.00
2017-12-25T05:32:00.739Z,0.00
2017-12-25T05:33:00.668Z,0.00
2017-12-25T05:34:00.741Z,0.00
2017-12-25T05:35:00.674Z,0.00
2017-12-25T05:36:00.609Z,0.00
2017-12-25T05:37:00.680Z,0.00
2017-12-25T05:38:00.610Z,0.00
2017-12-25T05:39:00.666Z,0.00
2017-12-25T05:40:00.626Z,0.00
2017-12-25T05:41:00.612Z,0.00
2017-12-25T05:42:00.700Z,0.00
2017-12-25T05:43:00.612Z,0.00
2017-12-25T05:44:00.688Z,0.00
2017-12-25T05:45:00.705Z,0.00
2017-12-25T05:46:00.709Z,0.00
2017-12-25T05:47:00.622Z,0.00
2017-12-25T05:48:00.710Z,0.00
2017-12-25T05:49:00.648Z,0.00
2017-12-25T05:50:00.752Z,0.00
2017-12-25T05:51:00.657Z,0.00
2017-12-25T05:52:00.648Z,0.00
2017-12-25T05:53:00.658Z,0.00
2017-12-25T05:54:00.741Z,0.00
2017-12-25T05:55:00.632Z,0.00
2017-12-25T05:56:00.717Z,0.00
2017-12-25T05:57:00.747Z,0.00
2017-12-25T05:58:00.739Z,0.00
2017-12-25T05:59:00.717Z,0.00
2017-12-25T06:00:00.756Z,0.00
2017-12-25T06:01:00.699Z,0.00
2017-12-25T06:02:00.634Z,0.00
2017-12-25T06:03:00.726Z,0.00
2017-12-25T06:04:00.727Z,0.00
2017-12-25T06:05:00.682Z,0.00
2017-12-25T06:06:00.703Z,0.00
2017-12-25T06:07:00.720Z,0.00
2017-12-25T06:08:00.688Z,0.00
2017-12-25T06:09:00.686Z,0.00
2017-12-25T06:10:00.724Z,0.00
2017-12-25T06:11:00.689Z,0.00
2017-12-25T06:12:00.663Z,0.00
2017-12-25T06:13:00.749Z,0.00
2017-12-25T06:14:00.724Z,0.00
2017-12-25T06:15:00.710Z,0.00
2017-12-25T06:16:00.764Z,0.00
2017-12-25T06:17:00.690Z,0.00
2017-12-25T06:18:00.767Z,0.00
2017-12-25T06:19:00.765Z,0.00
2017-12-25T06:20:00.699Z,0.00
2017-12-25T06:21:00.781Z,0.00
2017-12-25T06:22:00.699Z,0.00
2017-12-25T06:23:00.699Z,0.00
2017-12-25T06:24:00.779Z,0.00
2017-12-25T06:25:00.774Z,0.00
2017-12-25T06:26:00.699Z,0.00
2017-12-25T06:27:00.769Z,0.00
2017-12-25T06:28:00.698Z,0.00
2017-12-25T06:29:00.773Z,0.00
2017-12-25T06:30:00.707Z,0.00
2017-12-25T06:31:00.775Z,0.00
2017-12-25T06:32:00.698Z,0.00
2017-12-25T06:33:00.774Z,0.00
2017-12-25T06:34:00.689Z,0.00
2017-12-25T06:35:00.781Z,0.00
2017-12-25T06:36:00.708Z,0.00
2017-12-25T06:37:00.778Z,0.00
2017-12-25T06:38:00.707Z,0.00
2017-12-25T06:39:00.780Z,0.00
2017-12-25T06:40:00.707Z,0.00
2017-12-25T06:41:00.783Z,0.00
2017-12-25T06:42:00.705Z,0.00
2017-12-25T06:43:00.780Z,1.00
2017-12-25T06:44:00.712Z,1.00
2017-12-25T06:45:00.786Z,1.00
2017-12-25T06:46:00.712Z,1.00
2017-12-25T06:47:00.714Z,1.00
2017-12-25T06:48:00.787Z,1.00
2017-12-25T06:49:00.723Z,1.00
2017-12-25T06:50:00.731Z,1.00
2017-12-25T06:51:00.787Z,1.00
2017-12-25T06:52:00.719Z,2.00
2017-12-25T06:53:00.790Z,2.00
2017-12-25T06:54:00.719Z,2.00
2017-12-25T06:55:00.721Z,2.00
2017-12-25T06:56:00.790Z,2.00
2017-12-25T06:57:00.724Z,3.00
2017-12-25T06:58:00.792Z,3.00
2017-12-25T06:59:00.723Z,4.00
2017-12-25T07:00:00.740Z,4.00
2017-12-25T07:01:00.744Z,5.00
2017-12-25T07:02:00.796Z,6.00
2017-12-25T07:03:00.725Z,7.00
2017-12-25T07:04:00.730Z,9.00
2017-12-25T07:05:00.795Z,10.00
2017-12-25T07:06:00.757Z,12.00
2017-12-25T07:07:00.663Z,14.00
2017-12-25T07:08:00.756Z,16.00
2017-12-25T07:09:00.756Z,18.00
2017-12-25T07:10:00.740Z,19.00
2017-12-25T07:11:00.799Z,21.00
2017-12-25T07:12:00.725Z,25.00
2017-12-25T07:13:00.700Z,32.00
2017-12-25T07:14:00.703Z,39.00
2017-12-25T07:15:00.728Z,44.00
2017-12-25T07:16:00.692Z,46.00
2017-12-25T07:17:00.744Z,51.00
2017-12-25T07:18:00.949Z,57.00
2017-12-25T07:19:00.738Z,60.00
2017-12-25T07:20:00.696Z,66.00
2017-12-25T07:21:00.745Z,70.00
2017-12-25T07:22:00.628Z,75.00
2017-12-25T07:23:00.744Z,88.00
2017-12-25T07:24:00.628Z,108.00
2017-12-25T07:25:00.749Z,118.00
2017-12-25T07:26:00.812Z,117.00
2017-12-25T07:27:00.743Z,119.00
2017-12-25T07:28:00.809Z,133.00
2017-12-25T07:29:00.767Z,160.00
2017-12-25T07:30:00.808Z,187.00
2017-12-25T07:31:00.811Z,204.00
2017-12-25T07:32:00.737Z,216.00
2017-12-25T07:33:00.687Z,220.00
2017-12-25T07:34:00.742Z,242.00
2017-12-25T07:35:00.813Z,268.00
2017-12-25T07:36:00.723Z,284.00
2017-12-25T07:37:00.693Z,283.00
2017-12-25T07:38:00.755Z,293.00
2017-12-25T07:39:00.753Z,324.00
2017-12-25T07:40:00.771Z,356.00
2017-12-25T07:41:00.686Z,388.00
2017-12-25T07:42:00.771Z,400.00
2017-12-25T07:43:00.685Z,417.00
2017-12-25T07:44:00.744Z,429.00
2017-12-25T07:45:00.743Z,440.00
2017-12-25T07:46:00.749Z,457.00
2017-12-25T07:47:00.824Z,480.00
2017-12-25T07:48:00.744Z,488.00
2017-12-25T07:49:00.821Z,487.00
2017-12-25T07:50:00.748Z,523.00
2017-12-25T07:51:00.823Z,524.00
2017-12-25T07:52:00.751Z,527.00
2017-12-25T07:53:00.824Z,554.00
2017-12-25T07:54:00.756Z,595.00
2017-12-25T07:55:00.826Z,620.00
2017-12-25T07:56:00.813Z,660.00
2017-12-25T07:57:00.765Z,676.00
2017-12-25T07:58:00.702Z,700.00
2017-12-25T07:59:00.816Z,722.00
2017-12-25T08:00:00.794Z,742.00
2017-12-25T08:01:00.729Z,756.00
2017-12-25T08:02:00.705Z,766.00
2017-12-25T08:03:00.705Z,817.00
2017-12-25T08:04:00.833Z,817.00
2017-12-25T08:05:00.755Z,790.00
2017-12-25T08:06:00.758Z,789.00
2017-12-25T08:07:00.757Z,789.00
2017-12-25T08:08:00.759Z,766.00
2017-12-25T08:09:00.835Z,766.00
2017-12-25T08:10:00.759Z,765.00
2017-12-25T08:11:00.835Z,757.00
2017-12-25T08:12:00.747Z,761.00
2017-12-25T08:13:00.760Z,789.00
2017-12-25T08:14:00.760Z,843.00
2017-12-25T08:15:00.764Z,925.00
2017-12-25T08:16:00.709Z,999.00
2017-12-25T08:17:00.691Z,999.00
2017-12-25T08:18:00.761Z,999.00
2017-12-25T08:19:00.717Z,999.00
2017-12-25T08:20:00.722Z,999.00
2017-12-25T08:21:00.752Z,999.00
2017-12-25T08:22:00.668Z,999.00
2017-12-25T08:23:00.780Z,999.00
2017-12-25T08:24:00.717Z,999.00
2017-12-25T08:25:00.778Z,999.00
2017-12-25T08:26:00.798Z,999.00
2017-12-25T08:27:00.775Z,999.00
2017-12-25T08:28:00.710Z,999.00
2017-12-25T08:29:00.723Z,999.00
2017-12-25T08:30:00.766Z,999.00
2017-12-25T08:31:00.797Z,999.00
2017-12-25T08:32:00.799Z,999.00
2017-12-25T08:33:00.711Z,999.00
2017-12-25T08:34:00.802Z,999.00
2017-12-25T08:35:00.799Z,999.00
2017-12-25T08:36:00.773Z,999.00
2017-12-25T08:37:00.853Z,999.00
2017-12-25T08:38:00.788Z,999.00
2017-12-25T08:39:00.776Z,999.00
2017-12-25T08:40:00.776Z,999.00
2017-12-25T08:41:00.815Z,999.00
2017-12-25T08:42:00.780Z,999.00
2017-12-25T08:43:00.806Z,999.00
2017-12-25T08:44:00.764Z,999.00
2017-12-25T08:45:00.849Z,999.00
2017-12-25T08:46:00.821Z,999.00
2017-12-25T08:47:00.841Z,999.00
2017-12-25T08:48:00.847Z,999.00
2017-12-25T08:49:00.819Z,999.00
2017-12-25T08:50:00.756Z,999.00
2017-12-25T08:51:00.792Z,999.00
2017-12-25T08:52:00.823Z,999.00
2017-12-25T08:53:00.756Z,999.00
2017-12-25T08:54:00.823Z,999.00
2017-12-25T08:55:00.734Z,999.00
2017-12-25T08:56:00.786Z,999.00
2017-12-25T08:57:00.785Z,999.00
2017-12-25T08:58:00.864Z,999.00
2017-12-25T08:59:00.786Z,999.00
2017-12-25T09:00:00.860Z,999.00
2017-12-25T09:01:00.792Z,999.00
2017-12-25T09:02:00.801Z,999.00
2017-12-25T09:03:00.788Z,999.00
2017-12-25T09:04:00.863Z,999.00
2017-12-25T09:05:00.866Z,999.00
2017-12-25T09:06:00.870Z,999.00
2017-12-25T09:07:00.789Z,999.00
2017-12-25T09:08:00.782Z,999.00
2017-12-25T09:09:00.868Z,999.00
2017-12-25T09:10:00.864Z,999.00
2017-12-25T09:11:00.800Z,999.00
2017-12-25T09:12:00.872Z,999.00
2017-12-25T09:13:00.870Z,999.00
2017-12-25T09:14:00.783Z,999.00
2017-12-25T09:15:00.805Z,999.00
2017-12-25T09:16:00.799Z,999.00
2017-12-25T09:17:00.830Z,999.00
2017-12-25T09:18:00.743Z,999.00
2017-12-25T09:19:00.832Z,999.00
2017-12-25T09:20:00.838Z,999.00
2017-12-25T09:21:00.803Z,999.00
2017-12-25T09:22:00.762Z,999.00
2017-12-25T09:23:00.760Z,999.00
2017-12-25T09:24:00.804Z,999.00
2017-12-25T09:25:00.709Z,999.00
2017-12-25T09:26:00.806Z,999.00
2017-12-25T09:27:00.807Z,999.00
2017-12-25T09:28:00.880Z,999.00
2017-12-25T09:29:00.811Z,999.00
2017-12-25T09:30:00.885Z,999.00
2017-12-25T09:31:00.804Z,999.00
2017-12-25T09:32:00.813Z,999.00
2017-12-25T09:33:00.810Z,999.00
2017-12-25T09:34:00.882Z,999.00
2017-12-25T09:35:00.818Z,999.00
2017-12-25T09:36:00.886Z,999.00
2017-12-25T09:37:00.881Z,999.00
2017-12-25T09:38:00.883Z,999.00
2017-12-25T09:39:00.833Z,999.00
2017-12-25T09:40:00.879Z,999.00
2017-12-25T09:41:00.812Z,999.00
2017-12-25T09:42:00.884Z,999.00
2017-12-25T09:43:00.803Z,999.00
2017-12-25T09:44:00.889Z,999.00
2017-12-25T09:45:00.895Z,999.00
2017-12-25T09:46:00.769Z,999.00
2017-12-25T09:47:00.804Z,999.00
2017-12-25T09:48:00.828Z,999.00
2017-12-25T09:49:00.730Z,999.00
2017-12-25T09:50:00.806Z,999.00
2017-12-25T09:51:00.723Z,999.00
2017-12-25T09:52:00.777Z,999.00
2017-12-25T09:53:00.719Z,999.00
2017-12-25T09:54:00.818Z,999.00
2017-12-25T09:55:00.829Z,999.00
2017-12-25T09:56:00.898Z,999.00
2017-12-25T09:57:00.894Z,999.00
2017-12-25T09:58:00.824Z,999.00
2017-12-25T09:59:00.902Z,999.00
2017-12-25T10:00:00.806Z,999.00
2017-12-25T10:01:00.900Z,999.00
2017-12-25T10:02:00.812Z,999.00
2017-12-25T10:03:00.812Z,999.00
2017-12-25T10:04:00.811Z,999.00
2017-12-25T10:05:00.828Z,999.00
2017-12-25T10:06:00.802Z,999.00
2017-12-25T10:07:00.862Z,999.00
2017-12-25T10:08:00.786Z,999.00
2017-12-25T10:09:00.844Z,999.00
2017-12-25T10:10:00.846Z,999.00
2017-12-25T10:11:00.913Z,999.00
2017-12-25T10:12:00.774Z,999.00
2017-12-25T10:13:00.831Z,999.00
2017-12-25T10:14:00.788Z,999.00
2017-12-25T10:15:00.741Z,999.00
2017-12-25T10:16:00.909Z,999.00
2017-12-25T10:17:00.910Z,999.00
2017-12-25T10:18:00.910Z,999.00
2017-12-25T10:19:00.828Z,999.00
2017-12-25T10:20:00.836Z,999.00
2017-12-25T10:21:00.834Z,999.00
2017-12-25T10:22:00.914Z,999.00
2017-12-25T10:23:00.839Z,999.00
2017-12-25T10:24:00.916Z,999.00
2017-12-25T10:25:00.913Z,999.00
2017-12-25T10:26:00.918Z,999.00
2017-12-25T10:27:00.842Z,999.00
2017-12-25T10:28:00.914Z,999.00
2017-12-25T10:29:00.919Z,999.00
2017-12-25T10:30:00.912Z,999.00
2017-12-25T10:31:00.916Z,999.00
2017-12-25T10:32:00.859Z,999.00
2017-12-25T10:33:00.881Z,999.00
2017-12-25T10:34:00.860Z,999.00
2017-12-25T10:35:00.918Z,999.00
2017-12-25T10:36:00.872Z,999.00
2017-12-25T10:37:00.867Z,999.00
2017-12-25T10:38:00.748Z,999.00
2017-12-25T10:39:00.834Z,999.00
2017-12-25T10:40:00.862Z,999.00
2017-12-25T10:41:00.822Z,999.00
2017-12-25T10:42:00.748Z,999.00
2017-12-25T10:43:00.779Z,999.00
2017-12-25T10:44:00.755Z,999.00
2017-12-25T10:45:00.849Z,999.00
2017-12-25T10:46:00.828Z,999.00
2017-12-25T10:47:00.808Z,999.00
2017-12-25T10:48:00.835Z,999.00
2017-12-25T10:49:00.899Z,999.00
2017-12-25T10:50:00.835Z,999.00
2017-12-25T10:51:00.824Z,999.00
2017-12-25T10:52:00.916Z,999.00
2017-12-25T10:53:00.837Z,999.00
2017-12-25T10:54:00.814Z,999.00
2017-12-25T10:55:00.898Z,999.00
2017-12-25T10:56:00.811Z,999.00
2017-12-25T10:57:00.856Z,999.00
2017-12-25T10:58:00.813Z,999.00
2017-12-25T10:59:00.899Z,999.00
2017-12-25T11:00:00.925Z,999.00
2017-12-25T11:01:00.830Z,999.00
2017-12-25T11:02:00.844Z,999.00
2017-12-25T11:03:00.832Z,999.00
2017-12-25T11:04:00.849Z,999.00
2017-12-25T11:05:00.839Z,999.00
2017-12-25T11:06:00.906Z,999.00
2017-12-25T11:07:00.820Z,999.00
2017-12-25T11:08:00.853Z,999.00
2017-12-25T11:09:00.888Z,999.00
2017-12-25T11:10:00.914Z,999.00
2017-12-25T11:11:00.905Z,999.00
2017-12-25T11:12:00.850Z,999.00
2017-12-25T11:13:00.939Z,999.00
2017-12-25T11:14:00.850Z,999.00
2017-12-25T11:15:00.946Z,999.00
2017-12-25T11:16:00.914Z,999.00
2017-12-25T11:17:00.876Z,999.00
2017-12-25T11:18:00.814Z,999.00
2017-12-25T11:19:00.904Z,999.00
2017-12-25T11:20:00.783Z,999.00
2017-12-25T11:21:00.832Z,999.00
2017-12-25T11:22:00.910Z,999.00
2017-12-25T11:23:00.927Z,999.00
2017-12-25T11:24:00.812Z,999.00
2017-12-25T11:25:00.886Z,999.00
2017-12-25T11:26:00.869Z,999.00
2017-12-25T11:27:00.883Z,999.00
2017-12-25T11:28:00.885Z,999.00
2017-12-25T11:29:00.885Z,999.00
2017-12-25T11:30:00.880Z,999.00
2017-12-25T11:31:00.883Z,999.00
2017-12-25T11:32:00.864Z,999.00
2017-12-25T11:33:00.881Z,999.00
2017-12-25T11:34:00.784Z,999.00
2017-12-25T11:35:00.807Z,999.00
2017-12-25T11:36:00.891Z,999.00
2017-12-25T11:37:00.954Z,999.00
2017-12-25T11:38:00.901Z,999.00
2017-12-25T11:39:00.967Z,999.00
2017-12-25T11:40:00.960Z,999.00
2017-12-25T11:41:00.852Z,999.00
2017-12-25T11:42:00.962Z,999.00
2017-12-25T11:43:00.887Z,999.00
2017-12-25T11:44:00.955Z,999.00
2017-12-25T11:45:00.932Z,999.00
2017-12-25T11:46:00.900Z,999.00
2017-12-25T11:47:00.902Z,999.00
2017-12-25T11:48:00.984Z,999.00
2017-12-25T11:49:00.876Z,999.00
2017-12-25T11:50:00.960Z,999.00
2017-12-25T11:51:00.877Z,999.00
2017-12-25T11:52:00.891Z,999.00
2017-12-25T11:53:00.901Z,999.00
2017-12-25T11:54:00.965Z,999.00
2017-12-25T11:55:00.881Z,999.00
2017-12-25T11:56:00.967Z,999.00
2017-12-25T11:57:00.987Z,999.00
2017-12-25T11:58:00.896Z,999.00
2017-12-25T11:59:00.979Z,999.00
2017-12-25T12:00:00.984Z,999.00
2017-12-25T12:01:00.899Z,999.00
2017-12-25T12:02:00.976Z,999.00
2017-12-25T12:03:00.900Z,999.00
2017-12-25T12:04:00.976Z,999.00
2017-12-25T12:05:00.979Z,999.00
2017-12-25T12:06:00.909Z,999.00
2017-12-25T12:07:00.968Z,999.00
2017-12-25T12:08:00.976Z,999.00
2017-12-25T12:09:00.902Z,999.00
2017-12-25T12:10:00.980Z,999.00
2017-12-25T12:11:00.902Z,999.00
2017-12-25T12:12:00.980Z,999.00
2017-12-25T12:13:00.907Z,999.00
2017-12-25T12:14:00.981Z,999.00
2017-12-25T12:15:00.907Z,999.00
2017-12-25T12:16:00.893Z,999.00
2017-12-25T12:17:00.939Z,999.00
2017-12-25T12:18:00.916Z,999.00
2017-12-25T12:19:00.929Z,999.00
2017-12-25T12:20:00.880Z,999.00
2017-12-25T12:21:00.885Z,999.00
2017-12-25T12:22:00.860Z,999.00
2017-12-25T12:23:00.929Z,999.00
2017-12-25T12:24:00.857Z,999.00
2017-12-25T12:25:00.887Z,999.00
2017-12-25T12:26:00.879Z,999.00
2017-12-25T12:27:00.801Z,999.00
2017-12-25T12:28:00.892Z,999.00
2017-12-25T12:29:00.920Z,999.00
2017-12-25T12:30:00.894Z,999.00
2017-12-25T12:31:00.892Z,999.00
2017-12-25T12:32:00.805Z,999.00
2017-12-25T12:33:00.917Z,999.00
2017-12-25T12:34:00.911Z,999.00
2017-12-25T12:35:00.904Z,999.00
2017-12-25T12:36:00.895Z,999.00
2017-12-25T12:37:00.945Z,999.00
2017-12-25T12:38:00.972Z,999.00
2017-12-25T12:39:00.945Z,999.00
2017-12-25T12:40:00.995Z,999.00
2017-12-25T12:41:00.921Z,999.00
2017-12-25T12:42:00.905Z,999.00
2017-12-25T12:43:00.996Z,999.00
2017-12-25T12:44:00.920Z,999.00
2017-12-25T12:45:00.909Z,999.00
2017-12-25T12:46:00.953Z,999.00
2017-12-25T12:47:00.932Z,999.00
2017-12-25T12:48:00.868Z,999.00
2017-12-25T12:49:00.924Z,999.00
2017-12-25T12:50:00.881Z,999.00
2017-12-25T12:51:00.835Z,999.00
2017-12-25T12:52:00.925Z,999.00
2017-12-25T12:53:00.960Z,999.00
2017-12-25T12:54:00.864Z,999.00
2017-12-25T12:55:00.871Z,999.00